createdAt,value
2023-11-23T00:00:11.204Z,7.64
2023-11-23T00:02:39.424Z,7.67
2023-11-23T00:05:09.914Z,7.72
2023-11-23T00:07:36.962Z,7.73
2023-11-23T00:10:05.854Z,7.76
2023-11-23T00:12:32.336Z,7.78
2023-11-23T00:15:01.426Z,7.81
2023-11-23T00:17:28.676Z,7.84
2023-11-23T00:19:55.596Z,7.85
2023-11-23T00:22:22.594Z,7.88
2023-11-23T00:24:49.371Z,7.91
2023-11-23T00:27:16.408Z,7.90
2023-11-23T00:29:43.228Z,7.96
2023-11-23T00:32:09.607Z,7.99
2023-11-23T00:34:38.955Z,7.99
2023-11-23T00:37:08.342Z,8.04
2023-11-23T00:39:35.928Z,8.07
2023-11-23T00:42:02.514Z,8.08
2023-11-23T00:44:28.943Z,8.12
2023-11-23T00:46:55.425Z,8.15
2023-11-23T00:49:22.887Z,8.14
2023-11-23T00:51:49.310Z,8.17
2023-11-23T00:54:15.830Z,8.20
2023-11-23T00:56:42.313Z,8.23
2023-11-23T00:59:08.995Z,8.25
2023-11-23T01:01:35.531Z,8.27
2023-11-23T01:04:02.693Z,8.27
2023-11-23T01:06:29.172Z,8.30
2023-11-23T01:08:55.605Z,8.30
2023-11-23T01:11:23.133Z,8.32
2023-11-23T01:13:49.500Z,8.35
2023-11-23T01:16:15.898Z,8.37
2023-11-23T01:18:43.479Z,8.40
2023-11-23T01:21:10.090Z,8.42
2023-11-23T01:23:36.788Z,8.45
2023-11-23T01:26:03.303Z,8.48
2023-11-23T01:28:29.748Z,8.51
2023-11-23T01:30:56.376Z,8.54
2023-11-23T01:33:24.322Z,8.54
2023-11-23T01:35:51.557Z,8.55
2023-11-23T01:38:18.038Z,8.58
2023-11-23T01:40:44.470Z,8.58
2023-11-23T01:43:11.265Z,8.59
2023-11-23T01:45:38.681Z,8.62
2023-11-23T01:48:06.085Z,8.63
2023-11-23T01:50:33.028Z,8.63
2023-11-23T01:53:00.521Z,8.65
2023-11-23T01:55:27.620Z,8.65
2023-11-23T01:57:55.171Z,8.66
2023-11-23T02:00:25.432Z,8.67
2023-11-23T02:02:53.097Z,8.68
2023-11-23T02:05:23.025Z,8.72
2023-11-23T02:07:49.438Z,8.69
2023-11-23T02:10:16.046Z,8.66
2023-11-23T02:12:44.538Z,8.69
2023-11-23T02:15:11.513Z,8.71
2023-11-23T02:17:38.048Z,8.73
2023-11-23T02:20:09.880Z,8.78
2023-11-23T02:22:37.066Z,8.85
2023-11-23T02:25:05.272Z,8.91
2023-11-23T02:27:31.699Z,8.92
2023-11-23T02:29:58.142Z,8.94
2023-11-23T02:32:26.718Z,8.94
2023-11-23T02:34:53.342Z,8.92
2023-11-23T02:37:19.839Z,8.92
2023-11-23T02:39:46.831Z,8.93
2023-11-23T02:42:13.540Z,8.93
2023-11-23T02:44:40.015Z,8.98
2023-11-23T02:47:06.421Z,9.02
2023-11-23T02:49:32.789Z,9.04
2023-11-23T02:51:59.237Z,9.02
2023-11-23T02:54:25.673Z,9.00
2023-11-23T02:56:52.181Z,9.02
2023-11-23T02:59:18.634Z,9.03
2023-11-23T03:01:45.084Z,9.05
2023-11-23T03:04:11.796Z,9.07
2023-11-23T03:06:38.220Z,9.08
2023-11-23T03:09:04.735Z,9.06
2023-11-23T03:11:32.517Z,9.05
2023-11-23T03:13:58.981Z,9.07
2023-11-23T03:16:25.634Z,9.06
2023-11-23T03:18:52.138Z,9.05
2023-11-23T03:21:18.781Z,9.06
2023-11-23T03:23:46.674Z,9.05
2023-11-23T03:26:13.169Z,9.04
2023-11-23T03:28:39.594Z,9.04
2023-11-23T03:31:07.309Z,9.06
2023-11-23T03:33:33.940Z,9.07
2023-11-23T03:36:00.643Z,9.04
2023-11-23T03:38:27.151Z,9.00
2023-11-23T03:40:53.781Z,8.94
2023-11-23T03:43:20.786Z,8.93
2023-11-23T03:45:47.832Z,8.88
2023-11-23T03:48:14.478Z,8.88
2023-11-23T03:50:41.217Z,8.81
2023-11-23T03:53:07.729Z,8.74
2023-11-23T03:55:34.642Z,8.72
2023-11-23T03:58:01.117Z,8.69
2023-11-23T04:00:29.163Z,8.71
2023-11-23T04:02:57.178Z,8.68
2023-11-23T04:05:23.947Z,8.66
2023-11-23T04:07:50.820Z,8.66
2023-11-23T04:10:17.266Z,8.72
2023-11-23T04:12:43.727Z,8.73
2023-11-23T04:15:11.209Z,8.76
2023-11-23T04:17:37.762Z,8.74
2023-11-23T04:20:04.674Z,8.72
2023-11-23T04:22:31.026Z,8.69
2023-11-23T04:24:57.453Z,8.65
2023-11-23T04:27:25.031Z,8.61
2023-11-23T04:29:51.921Z,8.65
2023-11-23T04:32:18.419Z,8.68
2023-11-23T04:34:44.926Z,8.68
2023-11-23T04:37:11.359Z,8.72
2023-11-23T04:39:37.839Z,8.70
2023-11-23T04:42:04.647Z,8.70
2023-11-23T04:44:31.202Z,8.70
2023-11-23T04:46:57.624Z,8.74
2023-11-23T04:49:24.110Z,8.76
2023-11-23T04:51:50.483Z,8.82
2023-11-23T04:54:16.870Z,8.89
2023-11-23T04:56:43.411Z,8.94
2023-11-23T04:59:09.994Z,8.98
2023-11-23T05:01:36.663Z,9.06
2023-11-23T05:04:05.677Z,9.07
2023-11-23T05:06:32.593Z,9.07
2023-11-23T05:08:59.074Z,9.08
2023-11-23T05:11:25.547Z,9.04
2023-11-23T05:13:52.167Z,9.03
2023-11-23T05:16:18.649Z,9.01
2023-11-23T05:18:45.061Z,9.03
2023-11-23T05:21:11.595Z,9.03
2023-11-23T05:23:38.030Z,8.99
2023-11-23T05:26:05.678Z,8.90
2023-11-23T05:28:32.550Z,8.89
2023-11-23T05:30:59.022Z,8.88
2023-11-23T05:33:26.008Z,8.85
2023-11-23T05:35:52.783Z,8.85
2023-11-23T05:38:19.429Z,8.86
2023-11-23T05:40:45.817Z,8.86
2023-11-23T05:43:12.263Z,8.92
2023-11-23T05:45:38.735Z,8.93
2023-11-23T05:48:07.008Z,8.97
2023-11-23T05:50:33.547Z,8.97
2023-11-23T05:52:59.912Z,8.95
2023-11-23T05:55:26.329Z,8.95
2023-11-23T05:57:52.714Z,8.91
2023-11-23T06:00:19.546Z,8.89
2023-11-23T06:02:46.135Z,8.87
2023-11-23T06:05:13.480Z,8.82
2023-11-23T06:07:40.071Z,8.79
2023-11-23T06:10:07.489Z,8.76
2023-11-23T06:12:36.583Z,8.77
2023-11-23T06:15:04.130Z,8.72
2023-11-23T06:17:30.597Z,8.78
2023-11-23T06:19:57.049Z,8.79
2023-11-23T06:22:23.647Z,8.74
2023-11-23T06:24:50.261Z,8.73
2023-11-23T06:27:17.574Z,8.71
2023-11-23T06:29:44.048Z,8.73
2023-11-23T06:32:11.745Z,8.74
2023-11-23T06:34:40.460Z,8.71
2023-11-23T06:37:07.765Z,8.68
2023-11-23T06:39:37.996Z,8.66
2023-11-23T06:42:04.776Z,8.59
2023-11-23T06:44:31.596Z,8.61
2023-11-23T06:46:58.095Z,8.62
2023-11-23T06:49:24.500Z,8.60
2023-11-23T06:51:51.132Z,8.58
2023-11-23T06:54:18.000Z,8.56
2023-11-23T06:56:44.403Z,8.56
2023-11-23T06:59:10.805Z,8.57
2023-11-23T07:01:37.352Z,8.57
2023-11-23T07:04:05.146Z,8.57
2023-11-23T07:06:31.956Z,8.61
2023-11-23T07:09:00.140Z,8.63
2023-11-23T07:11:26.596Z,8.63
2023-11-23T07:13:52.971Z,8.69
2023-11-23T07:16:21.196Z,8.70
2023-11-23T07:18:48.167Z,8.74
2023-11-23T07:21:17.884Z,8.76
2023-11-23T07:23:44.457Z,8.76
2023-11-23T07:26:12.484Z,8.75
2023-11-23T07:28:38.948Z,8.78
2023-11-23T07:31:06.434Z,8.84
2023-11-23T07:33:35.974Z,8.83
2023-11-23T07:36:06.109Z,8.85
2023-11-23T07:38:33.788Z,8.87
2023-11-23T07:41:02.508Z,8.94
2023-11-23T07:43:32.211Z,8.98
2023-11-23T07:45:59.938Z,9.08
2023-11-23T07:48:27.476Z,9.14
2023-11-23T07:50:54.038Z,9.15
2023-11-23T07:53:23.157Z,9.23
2023-11-23T07:55:50.315Z,9.40
2023-11-23T07:58:17.218Z,9.78
2023-11-23T08:00:43.985Z,10.19
2023-11-23T08:03:11.223Z,10.71
2023-11-23T08:05:38.101Z,10.96
2023-11-23T08:08:04.722Z,11.30
2023-11-23T08:10:31.299Z,11.68
2023-11-23T08:12:59.531Z,11.27
2023-11-23T08:15:26.525Z,10.80
2023-11-23T08:17:58.747Z,10.48
2023-11-23T08:20:33.286Z,10.30
2023-11-23T08:22:59.823Z,10.23
2023-11-23T08:25:26.436Z,10.20
2023-11-23T08:27:52.889Z,10.21
2023-11-23T08:30:21.788Z,10.21
2023-11-23T08:32:48.467Z,10.21
2023-11-23T08:35:15.114Z,10.26
2023-11-23T08:37:56.581Z,10.33
2023-11-23T08:40:23.438Z,10.48
2023-11-23T08:42:59.370Z,10.58
2023-11-23T08:45:26.015Z,10.92
2023-11-23T08:47:53.479Z,10.98
2023-11-23T08:50:20.041Z,10.89
2023-11-23T08:52:46.786Z,12.35
2023-11-23T08:55:14.343Z,13.80
2023-11-23T08:57:42.007Z,13.93
2023-11-23T09:00:12.496Z,14.75
2023-11-23T09:02:39.531Z,15.69
2023-11-23T09:05:10.616Z,16.62
2023-11-23T09:07:37.325Z,14.71
2023-11-23T09:10:03.971Z,13.52
2023-11-23T09:12:33.559Z,13.83
2023-11-23T09:15:00.628Z,13.28
2023-11-23T09:17:27.588Z,13.68
2023-11-23T09:19:54.431Z,14.16
2023-11-23T09:22:20.889Z,13.74
2023-11-23T09:24:47.298Z,16.69
2023-11-23T09:27:15.769Z,19.62
2023-11-23T09:29:42.262Z,20.80
2023-11-23T09:32:09.970Z,21.97
2023-11-23T09:34:36.617Z,22.30
2023-11-23T09:37:03.194Z,21.81
2023-11-23T09:39:29.949Z,21.65
2023-11-23T09:41:59.476Z,22.05
2023-11-23T09:44:29.447Z,22.53
2023-11-23T09:46:57.082Z,20.43
2023-11-23T09:49:24.851Z,18.78
2023-11-23T09:51:52.963Z,21.16
2023-11-23T09:54:22.716Z,19.46
2023-11-23T09:56:49.519Z,16.55
2023-11-23T09:59:16.590Z,14.81
2023-11-23T10:01:49.805Z,14.19
2023-11-23T10:04:17.134Z,13.91
2023-11-23T10:06:44.150Z,13.97
2023-11-23T10:09:15.807Z,13.84
2023-11-23T10:11:42.261Z,13.89
2023-11-23T10:14:08.704Z,14.51
2023-11-23T10:16:35.410Z,14.41
2023-11-23T10:19:02.112Z,14.52
2023-11-23T10:21:29.528Z,14.66
2023-11-23T10:24:03.906Z,15.19
2023-11-23T10:26:30.206Z,16.59
2023-11-23T10:28:57.645Z,17.80
2023-11-23T10:31:24.250Z,19.47
2023-11-23T10:33:51.661Z,18.14
2023-11-23T10:36:18.863Z,17.26
2023-11-23T10:38:46.021Z,19.44
2023-11-23T10:41:14.804Z,19.44
2023-11-23T10:43:43.229Z,21.37
2023-11-23T10:46:10.840Z,19.01
2023-11-23T10:48:38.137Z,19.67
2023-11-23T10:51:06.779Z,20.29
2023-11-23T10:53:33.865Z,20.53
2023-11-23T10:56:09.978Z,20.11
2023-11-23T10:58:39.593Z,18.02
2023-11-23T11:01:10.344Z,16.85
2023-11-23T11:03:39.396Z,16.13
2023-11-23T11:06:11.519Z,16.64
2023-11-23T11:08:39.653Z,16.66
2023-11-23T11:11:12.127Z,15.42
2023-11-23T11:13:45.545Z,14.72
2023-11-23T11:16:16.902Z,14.45
2023-11-23T11:18:53.936Z,14.26
2023-11-23T11:21:27.240Z,14.24
2023-11-23T11:23:55.161Z,14.01
2023-11-23T11:26:22.756Z,13.89
2023-11-23T11:29:04.105Z,13.89
2023-11-23T11:31:38.749Z,13.83
2023-11-23T11:34:26.122Z,13.81
2023-11-23T11:36:55.275Z,14.23
2023-11-23T11:39:23.477Z,14.71
2023-11-23T11:41:57.834Z,14.71
2023-11-23T11:44:24.289Z,16.73
2023-11-23T11:46:50.933Z,16.04
2023-11-23T11:49:18.112Z,16.14
2023-11-23T11:51:44.966Z,17.21
2023-11-23T11:54:11.649Z,18.73
2023-11-23T11:56:38.502Z,17.58
2023-11-23T11:59:07.600Z,20.19
2023-11-23T12:01:35.068Z,18.79
2023-11-23T12:04:02.028Z,16.98
2023-11-23T12:06:30.765Z,16.43
2023-11-23T12:08:58.550Z,15.81
2023-11-23T12:11:29.093Z,15.23
2023-11-23T12:13:57.986Z,14.80
2023-11-23T12:16:37.653Z,14.48
2023-11-23T12:19:17.540Z,14.12
2023-11-23T12:21:44.476Z,14.05
2023-11-23T12:24:11.013Z,14.20
2023-11-23T12:26:39.835Z,14.08
2023-11-23T12:29:06.493Z,14.06
2023-11-23T12:31:33.667Z,14.06
2023-11-23T12:34:00.264Z,14.48
2023-11-23T12:36:26.652Z,14.27
2023-11-23T12:38:53.120Z,14.18
2023-11-23T12:41:21.276Z,13.99
2023-11-23T12:43:47.700Z,13.81
2023-11-23T12:46:14.232Z,13.76
2023-11-23T12:48:40.800Z,13.75
2023-11-23T12:51:07.943Z,13.74
2023-11-23T12:53:34.676Z,13.68
2023-11-23T12:56:01.082Z,13.63
2023-11-23T12:58:27.854Z,13.59
2023-11-23T13:00:54.274Z,13.58
2023-11-23T13:03:22.546Z,13.47
2023-11-23T13:05:51.027Z,13.45
2023-11-23T13:08:17.491Z,13.42
2023-11-23T13:10:44.968Z,13.36
2023-11-23T13:13:11.991Z,13.31
2023-11-23T13:15:38.502Z,13.29
2023-11-23T13:18:05.658Z,13.26
2023-11-23T13:20:32.719Z,13.24
2023-11-23T13:23:04.013Z,13.21
2023-11-23T13:25:30.555Z,13.16
2023-11-23T13:27:59.574Z,13.15
2023-11-23T13:30:26.612Z,13.13
2023-11-23T13:32:53.169Z,13.12
2023-11-23T13:35:19.938Z,13.10
2023-11-23T13:37:46.718Z,13.09
2023-11-23T13:40:14.175Z,13.06
2023-11-23T13:42:42.354Z,13.04
2023-11-23T13:45:09.887Z,13.03
2023-11-23T13:47:36.825Z,12.97
2023-11-23T13:50:08.981Z,12.92
2023-11-23T13:52:39.070Z,12.90
2023-11-23T13:55:06.502Z,12.88
2023-11-23T13:57:34.342Z,12.87
2023-11-23T14:00:06.791Z,12.83
2023-11-23T14:02:37.581Z,12.80
2023-11-23T14:05:06.611Z,12.80
2023-11-23T14:07:33.015Z,12.86
2023-11-23T14:09:59.581Z,12.90
2023-11-23T14:12:26.292Z,12.91
2023-11-23T14:14:53.552Z,12.90
2023-11-23T14:17:20.014Z,12.85
2023-11-23T14:19:46.699Z,12.86
2023-11-23T14:22:13.141Z,12.88
2023-11-23T14:24:40.496Z,12.87
2023-11-23T14:27:09.172Z,12.89
2023-11-23T14:29:35.598Z,12.86
2023-11-23T14:32:02.027Z,12.84
2023-11-23T14:34:29.690Z,13.03
2023-11-23T14:36:57.240Z,13.06
2023-11-23T14:39:29.451Z,13.10
2023-11-23T14:41:56.718Z,13.09
2023-11-23T14:44:23.883Z,13.11
2023-11-23T14:46:51.480Z,13.07
2023-11-23T14:49:19.878Z,12.95
2023-11-23T14:51:52.906Z,12.86
2023-11-23T14:54:31.689Z,12.83
2023-11-23T14:57:03.942Z,12.80
2023-11-23T14:59:30.485Z,12.81
2023-11-23T15:01:57.673Z,12.77
2023-11-23T15:04:24.253Z,12.74
2023-11-23T15:06:50.849Z,12.72
2023-11-23T15:09:19.283Z,12.70
2023-11-23T15:11:46.142Z,12.68
2023-11-23T15:14:12.589Z,12.67
2023-11-23T15:16:39.028Z,12.67
2023-11-23T15:19:06.001Z,12.65
2023-11-23T15:21:32.752Z,12.62
2023-11-23T15:24:01.621Z,12.58
2023-11-23T15:26:30.251Z,12.59
2023-11-23T15:28:59.158Z,12.59
2023-11-23T15:31:25.925Z,12.57
2023-11-23T15:33:52.525Z,12.54
2023-11-23T15:36:19.163Z,12.50
2023-11-23T15:38:45.703Z,12.50
2023-11-23T15:41:12.345Z,12.47
2023-11-23T15:43:39.449Z,12.47
2023-11-23T15:46:06.760Z,12.49
2023-11-23T15:48:34.113Z,12.46
2023-11-23T15:51:00.748Z,12.45
2023-11-23T15:53:29.496Z,12.45
2023-11-23T15:55:55.999Z,12.44
2023-11-23T15:58:23.013Z,12.42
2023-11-23T16:00:49.651Z,12.41
2023-11-23T16:03:16.894Z,12.41
2023-11-23T16:05:44.051Z,12.40
2023-11-23T16:08:10.932Z,12.40
2023-11-23T16:10:37.386Z,12.39
2023-11-23T16:13:03.947Z,12.40
2023-11-23T16:15:30.730Z,12.39
2023-11-23T16:17:59.076Z,12.39
2023-11-23T16:20:25.952Z,12.41
2023-11-23T16:22:52.408Z,12.41
2023-11-23T16:25:18.871Z,12.42
2023-11-23T16:27:46.108Z,12.43
2023-11-23T16:30:15.114Z,12.43
2023-11-23T16:32:43.259Z,12.43
2023-11-23T16:35:12.080Z,12.42
2023-11-23T16:37:39.150Z,12.41
2023-11-23T16:40:11.716Z,12.43
2023-11-23T16:42:41.550Z,12.43
2023-11-23T16:45:09.486Z,12.45
2023-11-23T16:47:36.996Z,12.46
2023-11-23T16:50:03.643Z,12.48
2023-11-23T16:52:30.182Z,12.48
2023-11-23T16:54:56.688Z,12.49
2023-11-23T16:57:23.639Z,12.50
2023-11-23T16:59:50.125Z,12.50
2023-11-23T17:02:16.656Z,12.54
2023-11-23T17:04:43.177Z,12.51
2023-11-23T17:07:09.572Z,12.52
2023-11-23T17:09:36.037Z,12.54
2023-11-23T17:12:02.474Z,12.52
2023-11-23T17:14:28.928Z,12.53
2023-11-23T17:16:55.440Z,12.57
2023-11-23T17:19:25.073Z,12.56
2023-11-23T17:21:53.562Z,12.57
2023-11-23T17:24:24.368Z,12.55
2023-11-23T17:26:51.618Z,12.55
2023-11-23T17:29:18.552Z,12.56
2023-11-23T17:31:46.578Z,12.56
2023-11-23T17:34:13.345Z,12.58
2023-11-23T17:36:40.267Z,12.59
2023-11-23T17:39:07.100Z,12.58
2023-11-23T17:41:33.901Z,12.60
2023-11-23T17:44:00.359Z,12.62
2023-11-23T17:46:27.836Z,12.59
2023-11-23T17:48:54.407Z,12.58
2023-11-23T17:51:20.925Z,12.59
2023-11-23T17:53:47.374Z,12.58
2023-11-23T17:56:16.255Z,12.57
2023-11-23T17:58:42.756Z,12.56
2023-11-23T18:01:09.300Z,12.54
2023-11-23T18:03:36.402Z,12.56
2023-11-23T18:06:02.893Z,12.54
2023-11-23T18:08:29.347Z,12.51
2023-11-23T18:11:00.102Z,12.53
2023-11-23T18:13:30.244Z,12.52
2023-11-23T18:15:56.761Z,12.51
2023-11-23T18:18:24.589Z,12.54
2023-11-23T18:20:52.482Z,12.56
2023-11-23T18:23:20.025Z,12.52
2023-11-23T18:25:46.640Z,12.42
2023-11-23T18:28:13.151Z,12.36
2023-11-23T18:30:40.570Z,12.30
2023-11-23T18:33:07.181Z,12.27
2023-11-23T18:35:34.520Z,12.26
2023-11-23T18:38:01.182Z,12.25
2023-11-23T18:40:27.750Z,12.22
2023-11-23T18:42:54.838Z,12.23
2023-11-23T18:45:21.428Z,12.21
2023-11-23T18:47:48.051Z,12.19
2023-11-23T18:50:15.712Z,12.14
2023-11-23T18:52:42.735Z,12.08
2023-11-23T18:55:10.196Z,12.03
2023-11-23T18:57:36.982Z,11.96
2023-11-23T19:00:05.123Z,11.92
2023-11-23T19:02:31.749Z,11.90
2023-11-23T19:04:58.273Z,11.87
2023-11-23T19:07:25.775Z,11.84
2023-11-23T19:09:52.284Z,11.81
2023-11-23T19:12:20.615Z,11.80
2023-11-23T19:14:47.099Z,11.78
2023-11-23T19:17:14.632Z,11.77
2023-11-23T19:19:41.270Z,11.78
2023-11-23T19:22:08.415Z,11.79
2023-11-23T19:24:35.256Z,11.82
2023-11-23T19:27:01.903Z,11.83
2023-11-23T19:29:38.802Z,11.85
2023-11-23T19:32:19.893Z,11.89
2023-11-23T19:34:47.655Z,11.89
2023-11-23T19:37:17.010Z,11.92
2023-11-23T19:39:48.591Z,11.93
2023-11-23T19:42:16.013Z,11.97
2023-11-23T19:44:42.782Z,11.94
2023-11-23T19:47:10.017Z,11.91
2023-11-23T19:49:37.103Z,11.90
2023-11-23T19:52:29.033Z,11.86
2023-11-23T19:54:56.583Z,11.87
2023-11-23T19:57:23.127Z,11.90
2023-11-23T19:59:49.675Z,11.90
2023-11-23T20:02:16.333Z,11.91
2023-11-23T20:04:43.005Z,11.91
2023-11-23T20:07:10.925Z,11.90
2023-11-23T20:09:38.503Z,11.86
2023-11-23T20:12:05.421Z,11.72
2023-11-23T20:14:32.543Z,11.55
2023-11-23T20:17:01.102Z,11.38
2023-11-23T20:19:29.452Z,11.27
2023-11-23T20:21:56.535Z,11.19
2023-11-23T20:24:25.276Z,11.10
2023-11-23T20:26:52.211Z,11.03
2023-11-23T20:29:19.425Z,10.95
2023-11-23T20:31:46.828Z,10.87
2023-11-23T20:34:14.013Z,10.79
2023-11-23T20:36:41.263Z,10.72
2023-11-23T20:39:10.284Z,10.70
2023-11-23T20:41:36.969Z,10.68
2023-11-23T20:44:03.504Z,10.65
2023-11-23T20:46:30.040Z,10.66
2023-11-23T20:48:57.048Z,10.69
2023-11-23T20:51:23.516Z,10.68
2023-11-23T20:53:52.447Z,10.70
2023-11-23T20:56:21.839Z,10.68
2023-11-23T20:58:50.121Z,10.65
2023-11-23T21:01:17.334Z,10.65
2023-11-23T21:03:44.296Z,10.64
2023-11-23T21:06:17.691Z,10.62
2023-11-23T21:08:45.521Z,10.63
2023-11-23T21:11:12.620Z,10.60
2023-11-23T21:13:39.653Z,10.58
2023-11-23T21:16:06.800Z,10.59
2023-11-23T21:18:33.827Z,10.58
2023-11-23T21:21:00.713Z,10.60
2023-11-23T21:23:27.636Z,10.56
2023-11-23T21:25:54.625Z,10.54
2023-11-23T21:28:21.146Z,10.55
2023-11-23T21:30:48.469Z,10.52
2023-11-23T21:33:15.233Z,10.51
2023-11-23T21:35:41.876Z,10.48
2023-11-23T21:38:08.544Z,10.50
2023-11-23T21:40:37.165Z,10.46
2023-11-23T21:43:03.637Z,10.42
2023-11-23T21:45:30.768Z,10.37
2023-11-23T21:47:57.321Z,10.34
2023-11-23T21:50:23.965Z,10.31
2023-11-23T21:52:52.693Z,10.26
2023-11-23T21:55:20.387Z,10.23
2023-11-23T21:57:47.106Z,10.21
2023-11-23T22:00:14.077Z,10.17
2023-11-23T22:02:41.542Z,10.09
2023-11-23T22:05:08.293Z,10.08
2023-11-23T22:07:34.672Z,10.05
2023-11-23T22:10:01.728Z,10.05
2023-11-23T22:12:28.375Z,10.01
2023-11-23T22:14:55.324Z,10.01
2023-11-23T22:17:22.141Z,9.96
2023-11-23T22:19:48.900Z,9.95
2023-11-23T22:22:15.559Z,9.93
2023-11-23T22:24:44.011Z,9.91
2023-11-23T22:27:11.031Z,9.88
2023-11-23T22:29:37.646Z,9.84
2023-11-23T22:32:06.394Z,9.79
2023-11-23T22:34:33.129Z,9.73
2023-11-23T22:36:59.872Z,9.65
2023-11-23T22:39:26.655Z,9.56
2023-11-23T22:41:53.375Z,9.44
2023-11-23T22:44:20.083Z,9.32
2023-11-23T22:46:46.715Z,9.20
2023-11-23T22:49:13.099Z,9.10
2023-11-23T22:51:39.894Z,9.03
2023-11-23T22:54:07.262Z,8.94
2023-11-23T22:56:33.947Z,8.86
2023-11-23T22:59:00.659Z,8.78
2023-11-23T23:01:28.909Z,8.72
2023-11-23T23:03:55.568Z,8.65
2023-11-23T23:06:22.250Z,8.61
2023-11-23T23:08:48.920Z,8.61
2023-11-23T23:11:15.453Z,8.56
2023-11-23T23:13:41.824Z,8.54
2023-11-23T23:16:08.234Z,8.50
2023-11-23T23:18:34.684Z,8.50
2023-11-23T23:21:01.175Z,8.45
2023-11-23T23:23:27.663Z,8.34
2023-11-23T23:25:54.110Z,8.23
2023-11-23T23:28:29.397Z,8.16
2023-11-23T23:30:58.948Z,8.12
2023-11-23T23:33:25.580Z,8.05
2023-11-23T23:35:53.231Z,7.99
2023-11-23T23:38:20.115Z,7.97
2023-11-23T23:40:50.747Z,7.96
2023-11-23T23:43:18.295Z,7.98
2023-11-23T23:45:44.853Z,7.98
2023-11-23T23:48:11.344Z,7.95
2023-11-23T23:50:37.820Z,7.89
2023-11-23T23:53:04.241Z,7.82
2023-11-23T23:55:30.622Z,7.83
2023-11-23T23:57:59.087Z,7.83
